This is the latest recevied weather packets stored in our database for station/object nz4d-1. If no packets are shown the sender has not sent any weather packets the latest 10 day(s).
| Time | Temp. | Humidity | Pressure | Rain* | Wind** | Luminosity | Snow |
|---|---|---|---|---|---|---|---|
| 1777942804 | 19.44° C | 64% | 1016.1 hPa | 0 mm | - | - | - |
| 1777942204 | 19.44° C | 64% | 1016 hPa | 0 mm | - | - | - |
| 1777941604 | 19.44° C | 63% | 1015.7 hPa | 0 mm | - | - | - |
| 1777939205 | 20.56° C | 59% | 1015.3 hPa | 0 mm | - | - | - |
| 1777938604 | 21.11° C | 58% | 1015.2 hPa | 0 mm | - | - | - |
| 1777935604 | 22.22° C | 58% | 1014.7 hPa | 0 mm | - | - | - |
| 1777929604 | 25° C | 40% | 1014.5 hPa | 0 mm | - | - | - |
| 1777926004 | 25° C | 39% | 1014.7 hPa | 0 mm | - | - | - |
| 1777925404 | 25° C | 40% | 1014.7 hPa | 0 mm | - | - | - |
| 1777914603 | 24.44° C | 43% | 1016.9 hPa | 0 mm | - | - | - |
| 1777912205 | 23.89° C | 48% | 1017 hPa | 0 mm | - | - | - |
| 1777911005 | 23.33° C | 51% | 1017.3 hPa | 0 mm | - | - | - |
| 1777909206 | 22.78° C | 58% | 1017.6 hPa | 0 mm | - | - | - |
| 1777906205 | 20.56° C | 62% | 1018.2 hPa | 0 mm | - | - | - |
| 1777902605 | 18.33° C | 71% | 1018.2 hPa | 0 mm | - | - | - |
| 1777890005 | 6.67° C | 89% | 1018.6 hPa | 0 mm | - | - | - |
| 1777882805 | 6.67° C | 89% | 1018.6 hPa | 0 mm | - | - | - |
| 1777882206 | 6.67° C | 89% | 1018.6 hPa | 0 mm | - | - | - |
| 1777881005 | 6.67° C | 89% | 1018.7 hPa | 0 mm | - | - | - |
| 1777879804 | 6.67° C | 89% | 1018.7 hPa | 0 mm | - | - | - |
| 1777876805 | 6.67° C | 89% | 1018.7 hPa | 0 mm | - | - | - |
| 1777876206 | 6.67° C | 89% | 1018.7 hPa | 0 mm | - | - | - |
| 1777872610 | 7.22° C | 88% | 1018.8 hPa | 0 mm | - | - | - |
| 1777866605 | 7.78° C | 86% | 1018.7 hPa | 0 mm | - | - | - |
| 1777863005 | 8.89° C | 83% | 1018.8 hPa | 0 mm | - | - | - |
* Rain latest hour (hover to see other rain measurements)
** Current wind speed in m/s (hover to see current wind gust speed)